M I D A S
Marine Information and Data Acquisition System
Tripno 1617 of the Zeeleeuw from 2008-11-27 08:04:50 to 2008-11-27 16:01:30
Back to CruiseResearch ActivitiesStationsMapUnderway DataData graphs

EquipmentUnitsComment
TimeDGPSUTC
LatitudeDGPSDM.mWGS84
LongitudeDGPSDM.mWGS84
HeadingGyrodeg 
SOGDGPSknotsSpeed over ground
COGDGPSdegCourse over ground
DepthEcho soundermeters200 kHz
Missing or incorrect values are displayed as -999
Navigation data collected by the RV Zeeleeuw from 2008-11-27 08:00:37 to 2008-11-27 16:17:23
Time Latitude Longitude Heading SOG COG Depth
2008-11-27 08:01:42 51°13.624 2°56.049 122.5 -999 289 5.5
2008-11-27 08:02:42 51°13.624 2°56.049 120 0.1 199 7.3
2008-11-27 08:03:42 51°13.625 2°56.042 110.3 1.6 297 7.2
2008-11-27 08:04:42 51°13.648 2°55.963 111.3 4 294 -999
2008-11-27 08:05:42 51°13.684 2°55.857 119.2 4.5 298 -999
2008-11-27 08:06:41 51°13.71 2°55.778 115.3 0.7 296 12.2
2008-11-27 08:07:41 51°13.715 2°55.729 82.4 2.3 273 12.5
2008-11-27 08:08:39 51°13.713 2°55.706 48.2 1.3 239 11
2008-11-27 08:09:38 51°13.752 2°55.694 341.1 5.7 341 10.9
2008-11-27 08:10:39 51°13.876 2°55.605 334.5 9.1 334 10.4
2008-11-27 08:11:38 51°14.003 2°55.508 332.6 8.2 333 10.6
2008-11-27 08:12:38 51°14.113 2°55.416 330.8 7 331 10.2
2008-11-27 08:13:38 51°14.213 2°55.316 322.8 8 322 11.1
2008-11-27 08:14:39 51°14.325 2°55.133 310.5 10.4 312 10.6
2008-11-27 08:15:39 51°14.451 2°54.925 319.3 11.3 320 10.5
2008-11-27 08:16:38 51°14.605 2°54.742 325.8 12.2 323 9.5
2008-11-27 08:17:39 51°14.767 2°54.535 322.8 12.3 320 9.5
2008-11-27 08:18:39 51°14.922 2°54.325 322.4 12.1 319 8.7
2008-11-27 08:19:38 51°15.07 2°54.117 321.8 12.1 318 8.7
2008-11-27 08:20:38 51°15.223 2°53.909 323.9 12.1 320 9.2
2008-11-27 08:21:39 51°15.381 2°53.703 326.7 12.1 323 9.9
2008-11-27 08:22:39 51°15.537 2°53.507 327.1 11.9 323 10.2
2008-11-27 08:23:39 51°15.703 2°53.33 332.6 12 328 10.7
2008-11-27 08:24:39 51°15.873 2°53.16 331.1 12.1 327 11.3
2008-11-27 08:25:39 51°16.044 2°52.991 330.9 12.1 328 11.7
2008-11-27 08:26:39 51°16.216 2°52.824 330.8 12 328 11.7
2008-11-27 08:27:39 51°16.384 2°52.654 330.1 12 327 11.9
2008-11-27 08:28:39 51°16.551 2°52.485 330.1 11.7 327 11.3
2008-11-27 08:29:39 51°16.714 2°52.317 329.5 11.6 325 10.1
2008-11-27 08:30:39 51°16.872 2°52.145 329.1 11.5 325 10.1
2008-11-27 08:31:39 51°17.032 2°51.972 330.3 11.6 325 10.4
2008-11-27 08:32:39 51°17.193 2°51.798 329.6 11.6 325 10.9
2008-11-27 08:33:39 51°17.352 2°51.62 330.9 11.5 327 10.8
2008-11-27 08:34:39 51°17.511 2°51.451 330.9 11.7 325 10
2008-11-27 08:35:39 51°17.672 2°51.275 329.1 11.7 325 9.8
2008-11-27 08:36:39 51°17.831 2°51.095 329.9 11.8 326 10.8
2008-11-27 08:37:39 51°17.999 2°50.931 333.1 11.8 328 12.1
2008-11-27 08:38:39 51°18.168 2°50.765 332.6 11.9 327 13.1
2008-11-27 08:39:39 51°18.339 2°50.606 336.4 11.8 329 14
2008-11-27 08:40:39 51°18.507 2°50.444 335.2 11.8 326 14.2
2008-11-27 08:41:39 51°18.674 2°50.283 335.7 11.7 331 14.3
2008-11-27 08:42:39 51°18.848 2°50.139 338.3 11.8 333 13.5
2008-11-27 08:43:39 51°19.025 2°50.007 338.3 11.7 334 11.9
2008-11-27 08:44:39 51°19.204 2°49.874 339 11.8 336 10.9
2008-11-27 08:45:39 51°19.383 2°49.738 337.9 12 335 13.5
2008-11-27 08:46:39 51°19.561 2°49.593 336.7 12 333 14.9
2008-11-27 08:47:39 51°19.741 2°49.451 339 12.1 333 16.7
2008-11-27 08:48:39 51°19.922 2°49.309 338.9 12.1 333 18.8
2008-11-27 08:49:39 51°20.101 2°49.165 338.7 12.1 332 21.7
2008-11-27 08:50:39 51°20.279 2°49.022 338.2 11.9 334 22.7
2008-11-27 08:51:39 51°20.457 2°48.879 338.5 12 332 22.9
2008-11-27 08:52:39 51°20.633 2°48.733 337.8 11.9 331 22.6
2008-11-27 08:53:39 51°20.809 2°48.587 338.1 11.9 332 21.8
2008-11-27 08:54:39 51°20.985 2°48.445 338.4 11.8 335 20.3
2008-11-27 08:55:39 51°21.162 2°48.301 337.3 12 331 20.9
2008-11-27 08:56:39 51°21.341 2°48.163 338.7 11.8 335 22.4
2008-11-27 08:57:39 51°21.521 2°48.026 338.2 12.1 335 23.4
2008-11-27 08:58:39 51°21.701 2°47.886 337.8 12.1 334 23.8
2008-11-27 08:59:39 51°21.881 2°47.748 338.6 12 334 24
2008-11-27 09:00:39 51°22.061 2°47.612 337.3 12 333 24.1
2008-11-27 09:01:39 51°22.239 2°47.472 338.3 11.9 331 21.2
2008-11-27 09:02:39 51°22.416 2°47.33 337.4 11.9 332 18.3
2008-11-27 09:03:39 51°22.59 2°47.19 339 11.7 335 19.7
2008-11-27 09:04:39 51°22.767 2°47.051 337.5 11.9 334 19
2008-11-27 09:05:39 51°22.944 2°46.914 339.5 11.9 336 19.4
2008-11-27 09:06:39 51°23.122 2°46.778 338.6 11.9 335 18.9
2008-11-27 09:07:39 51°23.3 2°46.639 337.7 12 334 25.5
2008-11-27 09:08:39 51°23.478 2°46.5 338.1 11.8 336 24.2
2008-11-27 09:09:39 51°23.656 2°46.36 337.4 12.1 330 28.2
2008-11-27 09:10:39 51°23.835 2°46.222 338.4 11.9 334 29.9
2008-11-27 09:11:39 51°24.014 2°46.082 338.9 11.9 334 29.9
2008-11-27 09:12:39 51°24.195 2°45.962 343 11.7 339 29.2
2008-11-27 09:13:39 51°24.379 2°45.85 342.8 11.9 341 27.2
2008-11-27 09:14:39 51°24.564 2°45.737 342.5 11.8 337 26.5
2008-11-27 09:15:39 51°24.747 2°45.628 342.4 11.7 341 26.4
2008-11-27 09:16:39 51°24.932 2°45.514 341.8 11.9 338 26.1
2008-11-27 09:17:39 51°25.111 2°45.383 337.3 11.8 334 25.8
2008-11-27 09:18:39 51°25.286 2°45.241 336.3 11.9 328 24.1
2008-11-27 09:19:39 51°25.462 2°45.097 336.9 11.9 336 23.3
2008-11-27 09:20:39 51°25.635 2°44.946 334.4 12 327 23.8
2008-11-27 09:21:39 51°25.809 2°44.798 334.3 11.9 330 23.6
2008-11-27 09:22:39 51°25.984 2°44.655 336.7 11.8 332 25.5
2008-11-27 09:23:39 51°26.162 2°44.518 338.5 11.8 331 28.8
2008-11-27 09:24:39 51°26.34 2°44.384 339.1 12 332 28.4
2008-11-27 09:25:39 51°26.522 2°44.252 338.3 12.1 332 26.7
2008-11-27 09:26:39 51°26.703 2°44.12 338.3 11.9 339 26.1
2008-11-27 09:27:39 51°26.885 2°43.984 337.6 12 335 23
2008-11-27 09:28:39 51°27.068 2°43.851 338.9 12.1 336 25.5
2008-11-27 09:29:39 51°27.252 2°43.719 338.2 12.2 336 27.5
2008-11-27 09:30:39 51°27.437 2°43.588 338.8 12.2 335 30.7
2008-11-27 09:31:38 51°27.616 2°43.461 337.7 11.9 336 31.2
2008-11-27 09:32:39 51°27.801 2°43.327 338.3 11.9 337 32.6
2008-11-27 09:33:39 51°27.985 2°43.199 338.7 12.1 336 33.5
2008-11-27 09:34:39 51°28.168 2°43.071 337.3 12 335 32.1
2008-11-27 09:35:38 51°28.347 2°42.947 338.6 11.8 336 31
2008-11-27 09:36:38 51°28.527 2°42.822 339.6 11.8 338 30.7
2008-11-27 09:37:39 51°28.71 2°42.69 339.6 11.7 341 30
2008-11-27 09:38:39 51°28.889 2°42.556 338.1 11.9 334 32.2
2008-11-27 09:39:38 51°29.068 2°42.433 340.3 11.8 343 31.8
2008-11-27 09:40:39 51°29.252 2°42.304 337.9 11.9 337 33
2008-11-27 09:41:39 51°29.432 2°42.175 337.2 11.9 336 35.6
2008-11-27 09:42:39 51°29.613 2°42.046 338.1 11.8 336 32
2008-11-27 09:43:39 51°29.794 2°41.923 338.9 11.8 342 33.6
2008-11-27 09:44:39 51°29.974 2°41.797 339.3 11.8 333 33.4
2008-11-27 09:45:39 51°30.156 2°41.678 340.1 11.7 343 32.5
2008-11-27 09:46:39 51°30.35 2°41.652 0.6 11.9 358 34.8
2008-11-27 09:47:39 51°30.544 2°41.68 8.3 11.7 8 35.9
2008-11-27 09:48:39 51°30.735 2°41.728 9.1 11.4 10 33.2
2008-11-27 09:49:39 51°30.926 2°41.795 15.1 11.7 13 34.6
2008-11-27 09:50:39 51°31.116 2°41.88 15.7 11.9 19 34.9
2008-11-27 09:51:39 51°31.306 2°41.967 15.5 11.8 19 34.7
2008-11-27 09:52:39 51°31.498 2°42.054 17.1 12.2 18 33.9
2008-11-27 09:53:38 51°31.685 2°42.142 18 11.9 18 34.7
2008-11-27 09:54:39 51°31.875 2°42.247 17.8 11.9 21 34.1
2008-11-27 09:55:39 51°32.063 2°42.347 18.4 11.7 19 32.9
2008-11-27 09:56:39 51°32.251 2°42.453 19.1 12.1 22 33.5
2008-11-27 09:57:39 51°32.436 2°42.558 18.2 11.5 20 32.6
2008-11-27 09:58:39 51°32.622 2°42.671 18.8 11.9 23 32.5
2008-11-27 09:59:39 51°32.805 2°42.787 21.3 11.9 26 33.5
2008-11-27 10:00:38 51°32.987 2°42.895 17.7 11.7 18 32.9
2008-11-27 10:01:39 51°33.175 2°43.011 20.1 12 21 32.5
2008-11-27 10:02:39 51°33.36 2°43.123 19 11.9 19 32.6
2008-11-27 10:03:39 51°33.545 2°43.243 18.1 11.9 27 33.9
2008-11-27 10:04:39 51°33.731 2°43.35 19.5 11.7 15 34.6
2008-11-27 10:05:39 51°33.914 2°43.47 21 11.7 23 33.8
2008-11-27 10:06:39 51°34.1 2°43.587 18.1 12 19 33.8
2008-11-27 10:07:39 51°34.287 2°43.701 21 11.5 18 34.1
2008-11-27 10:08:39 51°34.47 2°43.815 21.1 12 18 34.9
2008-11-27 10:09:38 51°34.653 2°43.935 21.7 12.5 23 36.1
2008-11-27 10:10:39 51°34.839 2°44.055 21.4 12 17 36
2008-11-27 10:11:39 51°35.025 2°44.173 19.3 11.8 23 36.3
2008-11-27 10:12:39 51°35.213 2°44.287 20.4 12.1 20 35.3
2008-11-27 10:13:39 51°35.4 2°44.404 19.5 12 16 34.7
2008-11-27 10:14:39 51°35.585 2°44.521 19.8 11.9 24 35.5
2008-11-27 10:15:39 51°35.771 2°44.645 20.6 11.9 22 35.1
2008-11-27 10:16:39 51°35.957 2°44.761 19.7 12 22 38.4
2008-11-27 10:17:39 51°36.144 2°44.877 20.2 11.9 23 38.4
2008-11-27 10:18:38 51°36.325 2°44.999 20.3 12.1 23 36.9
2008-11-27 10:19:38 51°36.51 2°45.113 19.8 12.1 23 36.8
2008-11-27 10:20:38 51°36.698 2°45.236 21.6 12.4 22 38
2008-11-27 10:21:39 51°36.886 2°45.365 26.3 12 31 34.9
2008-11-27 10:22:38 51°37.068 2°45.488 19.8 11.9 27 37.1
2008-11-27 10:23:39 51°37.262 2°45.598 17.5 12.3 14 36.9
2008-11-27 10:24:38 51°37.448 2°45.71 18.7 12.2 18 36.6
2008-11-27 10:25:38 51°37.639 2°45.823 19.5 12.6 25 36.9
2008-11-27 10:26:38 51°37.831 2°45.926 17.8 12.5 16 37.3
2008-11-27 10:27:38 51°38.02 2°46.035 18.7 12.6 20 37.7
2008-11-27 10:28:39 51°38.212 2°46.153 18.6 12 28 33.4
2008-11-27 10:29:38 51°38.398 2°46.272 19.3 12.2 22 34.1
2008-11-27 10:30:39 51°38.59 2°46.39 16.7 12.1 19 33.2
2008-11-27 10:31:39 51°38.779 2°46.512 19.4 12.5 25 33.3
2008-11-27 10:32:38 51°38.966 2°46.62 14.7 12 19 32.2
2008-11-27 10:33:39 51°39.159 2°46.731 17.9 12 14 30.9
2008-11-27 10:34:40 51°39.35 2°46.845 20.5 12 17 30.9
2008-11-27 10:35:39 51°39.536 2°46.962 17.7 12.3 22 29.4
2008-11-27 10:36:39 51°39.728 2°47.081 20.2 12.4 20 29.1
2008-11-27 10:37:39 51°39.918 2°47.194 18.6 12.4 18 27.9
2008-11-27 10:38:39 51°40.106 2°47.316 20.6 12.1 23 27.2
2008-11-27 10:39:39 51°40.298 2°47.438 16.6 12.1 26 27.2
2008-11-27 10:40:39 51°40.489 2°47.555 18 12.4 17 27.4
2008-11-27 10:41:38 51°40.677 2°47.674 17 12.7 19 29.4
2008-11-27 10:42:39 51°40.873 2°47.789 15.9 12.4 17 27
2008-11-27 10:43:39 51°41.066 2°47.909 19.5 12.5 20 30.2
2008-11-27 10:44:39 51°41.256 2°48.045 27.2 12.8 38 30.2
2008-11-27 10:45:39 51°41.397 2°48.289 57.2 12.7 65 27.5
2008-11-27 10:46:38 51°41.441 2°48.612 88.9 12.5 94 25.9
2008-11-27 10:47:38 51°41.383 2°48.935 112.1 12.8 104 23.3
2008-11-27 10:48:38 51°41.294 2°49.24 126.5 12.5 130 24.5
2008-11-27 10:49:38 51°41.136 2°49.433 161 11.7 160 31.3
2008-11-27 10:50:38 51°40.956 2°49.426 196.9 11 196 34
2008-11-27 10:51:39 51°40.777 2°49.334 198.8 11 198 29.8
2008-11-27 10:52:38 51°40.596 2°49.269 193.3 11.4 191 32.3
2008-11-27 10:53:38 51°40.409 2°49.219 190.7 11.3 189 31.8
2008-11-27 10:54:38 51°40.223 2°49.166 192 11.4 189 32.7
2008-11-27 10:55:38 51°40.037 2°49.116 193.8 11.4 192 32.7
2008-11-27 10:56:38 51°39.855 2°49.041 197.6 11.4 195 33.6
2008-11-27 10:57:38 51°39.674 2°48.966 196.5 10.8 193 34.2
2008-11-27 10:58:39 51°39.491 2°48.891 195.5 11.5 194 34.1
2008-11-27 10:59:38 51°39.312 2°48.821 195.3 11.3 194 33.8
2008-11-27 11:00:39 51°39.126 2°48.748 195.9 11.4 194 33.8
2008-11-27 11:01:38 51°38.946 2°48.679 195.5 11.3 193 33.6
2008-11-27 11:02:39 51°38.76 2°48.613 195.6 10.9 191 32.4
2008-11-27 11:03:39 51°38.581 2°48.535 198.2 11 195 32.2
2008-11-27 11:04:39 51°38.405 2°48.452 199 11.3 198 33.4
2008-11-27 11:05:39 51°38.226 2°48.37 198.8 11 197 32
2008-11-27 11:06:39 51°38.049 2°48.291 198.2 10.9 195 31.6
2008-11-27 11:07:39 51°37.873 2°48.213 198.6 10.8 195 34.6
2008-11-27 11:08:38 51°37.702 2°48.142 198 10.4 194 34.9
2008-11-27 11:09:38 51°37.529 2°48.066 198.8 11.2 195 34.7
2008-11-27 11:10:38 51°37.353 2°47.983 199 11.1 195 35.1
2008-11-27 11:11:38 51°37.176 2°47.909 197.3 11 196 37.3
2008-11-27 11:12:38 51°37.003 2°47.835 197.9 10.8 196 37.6
2008-11-27 11:13:38 51°36.828 2°47.755 199.2 11.1 196 38.2
2008-11-27 11:14:38 51°36.654 2°47.677 198.7 10.9 196 38.1
2008-11-27 11:15:39 51°36.477 2°47.6 198.4 10.6 195 38.4
2008-11-27 11:16:38 51°36.306 2°47.525 198 10.9 196 39.5
2008-11-27 11:17:38 51°36.134 2°47.449 198.2 10.6 195 39.1
2008-11-27 11:18:38 51°35.963 2°47.373 198 10.6 195 38.2
2008-11-27 11:19:38 51°35.792 2°47.293 198.1 10.8 196 38.3
2008-11-27 11:20:39 51°35.619 2°47.21 198.3 10.6 196 38.5
2008-11-27 11:21:39 51°35.448 2°47.132 198.1 10.6 194 37.6
2008-11-27 11:22:39 51°35.276 2°47.054 197 10.5 196 36.9
2008-11-27 11:23:39 51°35.109 2°46.976 198.8 10.6 197 37.3
2008-11-27 11:24:38 51°34.942 2°46.896 198 10.7 197 36
2008-11-27 11:25:38 51°34.772 2°46.816 198.3 10.6 197 34.7
2008-11-27 11:26:38 51°34.605 2°46.735 198.5 10.5 195 34.9
2008-11-27 11:27:39 51°34.435 2°46.656 197.6 10.5 199 35.7
2008-11-27 11:28:38 51°34.269 2°46.582 198 10.4 194 34.9
2008-11-27 11:29:38 51°34.104 2°46.504 199.1 10.3 196 34
2008-11-27 11:30:38 51°33.937 2°46.427 198 10.6 197 30.9
2008-11-27 11:31:40 51°33.767 2°46.345 199.5 10.4 196 32.5
2008-11-27 11:32:39 51°33.605 2°46.264 199.6 10.5 200 33.1
2008-11-27 11:33:39 51°33.44 2°46.185 197.8 10.2 197 35.3
2008-11-27 11:34:39 51°33.273 2°46.106 198 10.3 196 34.9
2008-11-27 11:35:39 51°33.108 2°46.031 197.9 10.2 195 35
2008-11-27 11:36:39 51°32.943 2°45.95 199.6 10.3 199 36.8
2008-11-27 11:37:39 51°32.779 2°45.869 198.4 10.4 197 35.7
2008-11-27 11:38:38 51°32.616 2°45.795 197.5 10.3 196 36
2008-11-27 11:39:39 51°32.448 2°45.714 197.7 10.4 197 35.3
2008-11-27 11:40:38 51°32.285 2°45.636 197.5 10.4 195 34.1
2008-11-27 11:41:38 51°32.119 2°45.561 198.8 10 195 36.4
2008-11-27 11:42:38 51°31.957 2°45.485 199.9 9.9 199 35.6
2008-11-27 11:43:38 51°31.795 2°45.407 198.8 10.2 198 35.3
2008-11-27 11:44:39 51°31.63 2°45.331 197.9 10.4 198 33.3
2008-11-27 11:45:40 51°31.464 2°45.25 198.8 10.4 199 33.8
2008-11-27 11:46:39 51°31.304 2°45.171 198.3 10.3 198 35.5
2008-11-27 11:47:38 51°31.145 2°45.094 198 10 193 32.6
2008-11-27 11:48:39 51°30.982 2°45.02 197.7 10.1 197 35.2
2008-11-27 11:49:38 51°30.821 2°44.944 198.1 10.3 196 38.9
2008-11-27 11:50:38 51°30.657 2°44.869 198.6 10.3 197 32.5
2008-11-27 11:51:38 51°30.495 2°44.789 199 10.2 198 34.1
2008-11-27 11:52:38 51°30.331 2°44.709 198.3 10.3 197 34.3
2008-11-27 11:53:38 51°30.168 2°44.635 198.8 10.1 197 35.6
2008-11-27 11:54:40 51°29.999 2°44.559 197.4 10.1 195 34.3
2008-11-27 11:55:38 51°29.841 2°44.488 197.7 10 198 33.9
2008-11-27 11:56:39 51°29.676 2°44.41 198.9 10.3 198 32.8
2008-11-27 11:57:38 51°29.517 2°44.329 196.9 10.4 194 32.8
2008-11-27 11:58:38 51°29.346 2°44.289 186.8 10.5 182 33.7
2008-11-27 11:59:38 51°29.173 2°44.328 168.3 10.6 158 28.8
2008-11-27 12:00:38 51°29.033 2°44.533 136.8 12.1 127 29.6
2008-11-27 12:01:38 51°28.922 2°44.809 127.1 12.3 122 30
2008-11-27 12:02:39 51°28.817 2°45.1 127 12.2 122 29.4
2008-11-27 12:03:40 51°28.714 2°45.387 127.8 11.7 121 27.7
2008-11-27 12:04:38 51°28.614 2°45.667 125.5 12.5 123 28.6
2008-11-27 12:05:38 51°28.509 2°45.963 126.2 12.8 121 29.7
2008-11-27 12:06:38 51°28.404 2°46.26 128 12.8 119 29.8
2008-11-27 12:07:38 51°28.3 2°46.56 125.7 12.7 121 30.3
2008-11-27 12:08:38 51°28.196 2°46.854 126.8 12.5 123 31.1
2008-11-27 12:09:38 51°28.092 2°47.149 127 12.8 116 33.9
2008-11-27 12:10:40 51°27.989 2°47.454 126.5 12.6 115 34.4
2008-11-27 12:11:38 51°27.892 2°47.737 127.5 12.7 117 31.8
2008-11-27 12:12:40 51°27.787 2°48.041 127.4 12.7 116 29.5
2008-11-27 12:13:38 51°27.69 2°48.325 128.4 12 124 29.9
2008-11-27 12:14:38 51°27.588 2°48.617 127.5 12.6 120 29.5
2008-11-27 12:15:38 51°27.485 2°48.909 125.7 13 114 28
2008-11-27 12:16:39 51°27.38 2°49.207 126.8 12.4 121 27.9
2008-11-27 12:17:39 51°27.277 2°49.504 126.2 12.7 121 25.7
2008-11-27 12:18:39 51°27.175 2°49.801 128.6 12.7 122 25.6
2008-11-27 12:19:40 51°27.072 2°50.1 127.6 12.6 120 24.1
2008-11-27 12:20:39 51°26.97 2°50.386 127.6 12.5 122 21.8
2008-11-27 12:21:40 51°26.863 2°50.683 127.7 12.6 122 25.3
2008-11-27 12:22:39 51°26.76 2°50.973 127.4 12.8 120 25.9
2008-11-27 12:23:39 51°26.651 2°51.267 128.6 12.6 123 27.6
2008-11-27 12:24:39 51°26.545 2°51.562 127.5 12.5 124 28.1
2008-11-27 12:25:39 51°26.44 2°51.857 126.2 12.8 118 28.8
2008-11-27 12:26:39 51°26.337 2°52.154 126.8 12.9 119 29.4
2008-11-27 12:27:39 51°26.232 2°52.451 126.3 12.8 118 30
2008-11-27 12:28:39 51°26.127 2°52.743 128.8 12.6 124 29.4
2008-11-27 12:29:39 51°26.023 2°53.038 128.2 12.8 119 30.4
2008-11-27 12:30:40 51°25.917 2°53.336 127.4 12.6 122 30.5
2008-11-27 12:31:39 51°25.815 2°53.624 127.1 12.7 121 30
2008-11-27 12:32:39 51°25.711 2°53.916 127.9 12.6 120 25.6
2008-11-27 12:33:38 51°25.61 2°54.206 128.5 12.6 119 23.7
2008-11-27 12:34:38 51°25.505 2°54.495 127.9 12.5 119 22.5
2008-11-27 12:35:38 51°25.403 2°54.784 126.8 12.6 121 22.3
2008-11-27 12:36:38 51°25.296 2°55.071 128.7 12.2 126 19.3
2008-11-27 12:37:40 51°25.189 2°55.365 128.4 12.3 124 20.4
2008-11-27 12:38:38 51°25.092 2°55.648 127.3 12.6 119 23.4
2008-11-27 12:39:40 51°24.988 2°55.957 126.7 12.9 116 26.4
2008-11-27 12:40:38 51°24.891 2°56.244 127.6 12.6 120 26.8
2008-11-27 12:41:38 51°24.789 2°56.54 128.1 12.9 117 26.4
2008-11-27 12:42:39 51°24.688 2°56.841 127.9 12.9 114 23.6
2008-11-27 12:43:38 51°24.587 2°57.124 127.4 12.3 121 20.8
2008-11-27 12:44:38 51°24.483 2°57.409 127.5 12.2 121 20.8
2008-11-27 12:45:38 51°24.407 2°57.714 105.4 12.8 100 20.1
2008-11-27 12:46:38 51°24.404 2°58.066 97.1 13.4 91 19.8
2008-11-27 12:47:38 51°24.361 2°58.4 115.6 12.6 109 18.7
2008-11-27 12:48:39 51°24.275 2°58.708 125.3 12.2 122 17.9
2008-11-27 12:49:38 51°24.168 2°58.976 130.9 12.2 123 17.5
2008-11-27 12:50:38 51°24.053 2°59.245 132.2 12 128 18.6
2008-11-27 12:51:39 51°23.938 2°59.522 130.5 12.3 125 19.3
2008-11-27 12:52:38 51°23.828 2°59.793 130.8 12.3 125 19.7
2008-11-27 12:53:38 51°23.717 3°0.074 128.9 12.5 123 20.8
2008-11-27 12:54:38 51°23.607 3°0.359 129.3 12.6 124 20.5
2008-11-27 12:55:38 51°23.493 3°0.638 130.7 12.5 123 19.8
2008-11-27 12:56:38 51°23.38 3°0.918 129.6 12.6 120 18.4
2008-11-27 12:57:38 51°23.268 3°1.199 130.2 12.6 120 16.3
2008-11-27 12:58:39 51°23.153 3°1.48 128.6 12.4 123 15.2
2008-11-27 12:59:38 51°23.043 3°1.754 128.8 12.2 125 14.1
2008-11-27 13:00:38 51°22.929 3°2.03 129.2 12.5 121 13
2008-11-27 13:01:38 51°22.818 3°2.305 128.2 12.3 122 14
2008-11-27 13:02:38 51°22.731 3°2.607 121.1 12.4 116 13.1
2008-11-27 13:03:38 51°22.593 3°2.823 150.2 11.7 143 14
2008-11-27 13:04:38 51°22.433 3°3 150.6 11.7 144 13.5
2008-11-27 13:05:38 51°22.272 3°3.178 152 11.8 146 14
2008-11-27 13:06:39 51°22.105 3°3.353 151.6 12 144 14.3
2008-11-27 13:07:38 51°21.945 3°3.53 151.9 12.1 144 14.1
2008-11-27 13:08:39 51°21.779 3°3.713 151.5 11.9 145 14
2008-11-27 13:09:38 51°21.619 3°3.89 151.4 11.9 145 13.9
2008-11-27 13:10:38 51°21.454 3°4.063 153 11.8 148 13.5
2008-11-27 13:11:38 51°21.29 3°4.235 151.6 11.5 145 12.9
2008-11-27 13:12:38 51°21.177 3°4.451 127.1 10.2 116 12.6
2008-11-27 13:13:38 51°21.115 3°4.697 113.9 10 108 12.2
2008-11-27 13:14:39 51°21.077 3°4.961 101.9 10.2 98 11.9
2008-11-27 13:15:40 51°21.093 3°5.24 85.6 10.4 82 11.6
2008-11-27 13:16:38 51°21.114 3°5.501 85.1 10.3 84 11.7
2008-11-27 13:17:39 51°21.136 3°5.777 86.3 10.3 82 11.7
2008-11-27 13:18:38 51°21.157 3°6.042 86.8 10 83 11.7
2008-11-27 13:19:38 51°21.179 3°6.3 87.6 8.8 82 11.6
2008-11-27 13:20:38 51°21.195 3°6.528 87.3 8.8 84 11.6
2008-11-27 13:21:39 51°21.216 3°6.772 87.7 9.1 84 11.5
2008-11-27 13:22:38 51°21.232 3°7.003 89.8 8.8 84 11.3
2008-11-27 13:23:40 51°21.252 3°7.243 87.8 8.8 81 11.4
2008-11-27 13:24:38 51°21.273 3°7.467 84.3 8.8 80 11.2
2008-11-27 13:25:40 51°21.303 3°7.706 83.9 8.8 77 11.2
2008-11-27 13:26:38 51°21.33 3°7.931 83.6 8.9 79 11.1
2008-11-27 13:27:40 51°21.362 3°8.171 82.7 8.9 79 11.6
2008-11-27 13:28:38 51°21.392 3°8.395 82.9 8.9 78 11.2
2008-11-27 13:29:38 51°21.422 3°8.627 83.4 8.9 78 11.7
2008-11-27 13:30:39 51°21.455 3°8.861 81.5 8.9 76 11.8
2008-11-27 13:31:39 51°21.489 3°9.092 82.1 8.9 78 12
2008-11-27 13:32:39 51°21.523 3°9.322 81.4 8.8 77 12.9
2008-11-27 13:33:39 51°21.579 3°9.542 52 9.7 49 13.5
2008-11-27 13:34:38 51°21.727 3°9.611 342.8 9.5 346 13.9
2008-11-27 13:35:38 51°21.819 3°9.452 272.1 8.2 278 14.1
2008-11-27 13:36:39 51°21.762 3°9.225 238.1 9.5 242 13.6
2008-11-27 13:37:39 51°21.696 3°9.016 238.9 8.7 244 12.8
2008-11-27 13:38:38 51°21.637 3°8.825 238.1 8 244 12.4
2008-11-27 13:39:39 51°21.577 3°8.633 237.7 7.9 243 12.1
2008-11-27 13:40:39 51°21.517 3°8.444 238.8 8.1 244 11.8
2008-11-27 13:41:39 51°21.459 3°8.258 238.7 7.1 244 11.7
2008-11-27 13:42:38 51°21.409 3°8.094 237.8 7.2 245 11.6
2008-11-27 13:43:39 51°21.354 3°7.918 238.3 7.3 242 11.2
2008-11-27 13:44:38 51°21.304 3°7.751 239.2 6.9 245 10.9
2008-11-27 13:45:39 51°21.257 3°7.578 241.2 6.9 248 10.8
2008-11-27 13:46:39 51°21.218 3°7.432 240.1 5.9 248 10.7
2008-11-27 13:47:39 51°21.181 3°7.286 242.3 6 248 10.6
2008-11-27 13:48:39 51°21.147 3°7.131 244 6.2 252 10.4
2008-11-27 13:49:38 51°21.114 3°6.978 244.7 6.3 252 10.5
2008-11-27 13:50:39 51°21.088 3°6.843 244.6 4.8 255 10.4
2008-11-27 13:51:39 51°21.065 3°6.717 243.6 5 252 10.5
2008-11-27 13:52:39 51°21.04 3°6.59 244.2 5 251 10.5
2008-11-27 13:53:39 51°21.016 3°6.463 244.2 5 253 10.4
2008-11-27 13:54:38 51°20.992 3°6.34 244.1 4.9 251 10.3
2008-11-27 13:55:39 51°20.97 3°6.213 244.5 4.9 253 10.3
2008-11-27 13:56:38 51°20.948 3°6.091 246.6 4.9 256 10.5
2008-11-27 13:57:39 51°20.93 3°5.962 247.5 4.9 259 10.3
2008-11-27 13:58:38 51°20.911 3°5.839 248 4.8 258 10.4
2008-11-27 13:59:39 51°20.89 3°5.712 246.7 5 256 10.4
2008-11-27 14:00:40 51°20.87 3°5.581 247.7 5.1 256 10.5
2008-11-27 14:01:40 51°20.851 3°5.454 248.1 4.2 257 10.5
2008-11-27 14:02:40 51°20.845 3°5.38 249 2.2 270 10.6
2008-11-27 14:03:40 51°20.863 3°5.331 287.5 2.6 315 10.5
2008-11-27 14:04:39 51°20.931 3°5.32 16.7 5.3 26 10.8
2008-11-27 14:05:39 51°20.981 3°5.41 68.7 4 59 11
2008-11-27 14:06:39 51°21.008 3°5.495 84.2 3.4 67 11
2008-11-27 14:07:39 51°21.015 3°5.585 114.1 3.4 93 11
2008-11-27 14:08:39 51°21.009 3°5.667 132.9 3 107 10.9
2008-11-27 14:09:39 51°20.986 3°5.726 163.4 2.3 139 10.8
2008-11-27 14:10:39 51°20.944 3°5.745 186.8 2.8 172 10.4
2008-11-27 14:11:39 51°20.9 3°5.763 175.9 2.9 160 10.3
2008-11-27 14:12:39 51°20.858 3°5.779 179.5 2.3 162 10
2008-11-27 14:13:39 51°20.82 3°5.823 149 3.5 130 9.9
2008-11-27 14:14:39 51°20.799 3°5.891 136.5 2.6 103 9.8
2008-11-27 14:15:39 51°20.796 3°5.957 116.8 2.7 91 9.6
2008-11-27 14:16:39 51°20.805 3°6.037 89.7 3.3 73 9.7
2008-11-27 14:17:39 51°20.819 3°6.118 93.9 2.9 76 9.6
2008-11-27 14:18:39 51°20.832 3°6.191 93.5 2.8 72 9.5
2008-11-27 14:19:39 51°20.848 3°6.261 86.4 2.8 68 9.6
2008-11-27 14:20:39 51°20.866 3°6.329 81.4 2.8 65 9.6
2008-11-27 14:21:39 51°20.886 3°6.396 77.3 2.8 62 9.6
2008-11-27 14:22:39 51°20.908 3°6.463 72.9 2.9 60 9.6
2008-11-27 14:23:39 51°20.934 3°6.53 69 2.9 57 9.6
2008-11-27 14:24:39 51°20.962 3°6.596 66.6 3 56 9.7
2008-11-27 14:25:39 51°20.991 3°6.664 67.8 3.1 55 9.7
2008-11-27 14:26:39 51°21.019 3°6.734 71.1 3.1 60 9.7
2008-11-27 14:27:39 51°21.045 3°6.805 74.2 3.1 60 9.8
2008-11-27 14:28:39 51°21.073 3°6.876 74.2 3.2 58 9.9
2008-11-27 14:29:39 51°21.099 3°6.948 77.4 3.1 60 9.9
2008-11-27 14:30:39 51°21.123 3°7.02 79 3.1 64 10
2008-11-27 14:31:39 51°21.146 3°7.096 79.7 3.2 65 10
2008-11-27 14:32:39 51°21.168 3°7.171 81.6 3.1 65 10.1
2008-11-27 14:33:39 51°21.189 3°7.245 81.4 3 65 10.2
2008-11-27 14:34:39 51°21.209 3°7.317 82.5 3 65 10.2
2008-11-27 14:35:39 51°21.23 3°7.388 82.4 2.9 65 10.2
2008-11-27 14:36:39 51°21.252 3°7.458 81.3 2.9 65 10.4
2008-11-27 14:37:39 51°21.272 3°7.527 81.9 2.8 63 10.4
2008-11-27 14:38:40 51°21.292 3°7.596 82.7 2.8 65 10.7
2008-11-27 14:39:39 51°21.31 3°7.662 83 2.7 67 10.6
2008-11-27 14:40:40 51°21.328 3°7.731 83.7 2.8 67 10.4
2008-11-27 14:41:39 51°21.344 3°7.797 88.3 2.6 72 10.4
2008-11-27 14:42:39 51°21.353 3°7.852 107.4 1.8 70 10.6
2008-11-27 14:43:39 51°21.366 3°7.892 105.3 1.7 60 10.5
2008-11-27 14:44:39 51°21.38 3°7.927 107.9 1.4 54 10.6
2008-11-27 14:45:39 51°21.396 3°7.956 110.6 1.3 46 10.7
2008-11-27 14:46:39 51°21.412 3°7.98 113.8 1.4 40 10.8
2008-11-27 14:47:39 51°21.43 3°8.001 114.1 1.5 33 10.9
2008-11-27 14:48:40 51°21.45 3°8.021 110.3 1.2 33 11
2008-11-27 14:49:40 51°21.459 3°8.056 127.6 2.3 106 11.1
2008-11-27 14:50:39 51°21.425 3°8.085 192.1 2.8 195 10.8
2008-11-27 14:51:40 51°21.412 3°8.021 263.3 2.3 293 10.7
2008-11-27 14:52:39 51°21.432 3°8 294.5 1.2 2 10.9
2008-11-27 14:53:39 51°21.453 3°8.002 293.5 1.2 5 11
2008-11-27 14:54:40 51°21.475 3°8.002 282.1 1.5 322 11
2008-11-27 14:55:39 51°21.469 3°7.949 216.3 2.7 220 10.9
2008-11-27 14:56:40 51°21.437 3°7.959 153.3 1 109 10.7
2008-11-27 14:57:39 51°21.448 3°7.981 117.4 1.3 43 10.7
2008-11-27 14:58:39 51°21.464 3°8.003 102.4 1.3 41 10.9
2008-11-27 14:59:39 51°21.48 3°8.023 102 1.3 35 10.9
2008-11-27 15:00:39 51°21.489 3°8.061 123.1 3.2 113 10.9
2008-11-27 15:01:40 51°21.432 3°8.059 221.3 4.9 231 10.7
2008-11-27 15:02:39 51°21.364 3°7.893 232.9 9.4 238 10.1
2008-11-27 15:03:40 51°21.266 3°7.656 233 11.1 237 9.6
2008-11-27 15:04:39 51°21.164 3°7.412 233.1 11.2 236 9.3
2008-11-27 15:05:40 51°21.056 3°7.16 232.4 11.3 235 8.9
2008-11-27 15:06:39 51°20.946 3°6.922 229.8 11.3 233 8.7
2008-11-27 15:07:39 51°20.835 3°6.681 230 11.2 234 8.5
2008-11-27 15:08:40 51°20.73 3°6.424 234.3 11.3 237 8.5
2008-11-27 15:09:39 51°20.629 3°6.175 233.3 11.3 237 8.5
2008-11-27 15:10:40 51°20.523 3°5.918 233 11.4 236 8.5
2008-11-27 15:11:39 51°20.413 3°5.678 230 11.4 233 8.5
2008-11-27 15:12:40 51°20.3 3°5.425 230.7 11.4 234 8.3
2008-11-27 15:13:39 51°20.192 3°5.184 231.4 11.4 235 8.6
2008-11-27 15:14:40 51°20.08 3°4.932 231.4 11.6 235 8.7
2008-11-27 15:15:39 51°19.977 3°4.675 234.7 11.7 238 8.6
2008-11-27 15:16:39 51°19.872 3°4.415 233.7 11.7 237 8.6
2008-11-27 15:17:40 51°19.763 3°4.151 233.6 11.7 237 8.7
2008-11-27 15:18:39 51°19.656 3°3.897 233.2 11.7 236 8.6
2008-11-27 15:19:40 51°19.545 3°3.634 232.9 11.7 236 8.8
2008-11-27 15:20:39 51°19.433 3°3.386 229.9 11.6 233 8.9
2008-11-27 15:21:40 51°19.317 3°3.136 230.2 11.6 234 8.8
2008-11-27 15:22:39 51°19.206 3°2.889 232.2 11.7 236 8.7
2008-11-27 15:23:40 51°19.097 3°2.626 233.8 11.7 237 8.8
2008-11-27 15:24:39 51°18.992 3°2.371 231.6 11.7 234 8.7
2008-11-27 15:25:39 51°18.877 3°2.12 229.6 11.7 233 8.8
2008-11-27 15:26:39 51°18.76 3°1.871 229.9 11.7 233 8.7
2008-11-27 15:27:39 51°18.643 3°1.622 230 11.6 234 8.7
2008-11-27 15:28:40 51°18.525 3°1.369 230.2 11.6 234 8.6
2008-11-27 15:29:39 51°18.409 3°1.126 229.7 11.7 232 8.4
2008-11-27 15:30:40 51°18.286 3°0.883 226.9 11.6 230 8.5
2008-11-27 15:31:39 51°18.163 3°0.656 225.7 11.4 229 8.2
2008-11-27 15:32:40 51°18.04 3°0.42 228.9 11.4 231 8.1
2008-11-27 15:33:39 51°17.927 3°0.184 229.5 11.5 233 8.3
2008-11-27 15:34:39 51°17.81 2°59.945 228.5 11.5 232 8.3
2008-11-27 15:35:39 51°17.699 2°59.698 231.1 11.5 234 8.6
2008-11-27 15:36:39 51°17.592 2°59.444 234.8 11.6 238 8.7
2008-11-27 15:37:40 51°17.485 2°59.179 233.7 11.7 236 9.1
2008-11-27 15:38:39 51°17.38 2°58.922 233.6 11.8 237 9.1
2008-11-27 15:39:40 51°17.268 2°58.658 231.4 11.9 234 9.3
2008-11-27 15:40:39 51°17.156 2°58.406 231.5 11.9 235 9.5
2008-11-27 15:41:40 51°17.042 2°58.143 231.2 11.8 236 9.7
2008-11-27 15:42:39 51°16.93 2°57.89 231.2 11.9 234 9.9
2008-11-27 15:43:39 51°16.81 2°57.64 228.4 11.8 232 10
2008-11-27 15:44:39 51°16.696 2°57.382 232 11.9 235 10.2
2008-11-27 15:45:39 51°16.583 2°57.119 232.2 12 235 10.1
2008-11-27 15:46:39 51°16.472 2°56.859 232.1 11.7 236 10.1
2008-11-27 15:47:39 51°16.363 2°56.603 232.1 11.6 236 10
2008-11-27 15:48:40 51°16.25 2°56.345 230.5 11.7 234 10
2008-11-27 15:49:39 51°16.137 2°56.103 229 11.6 233 9.8
2008-11-27 15:50:40 51°16.017 2°55.851 229.8 11.8 233 9.9
2008-11-27 15:51:39 51°15.903 2°55.607 229.2 11.6 234 9.7
2008-11-27 15:52:40 51°15.787 2°55.356 229.9 11.6 234 9.6
2008-11-27 15:53:39 51°15.663 2°55.132 220.5 11.4 224 9.5
2008-11-27 15:54:40 51°15.513 2°54.95 207.9 11.2 211 9.4
2008-11-27 15:55:39 51°15.344 2°54.823 198.8 11.5 201 8.9
2008-11-27 15:56:40 51°15.157 2°54.739 193.1 11.6 197 8.4
2008-11-27 15:57:39 51°14.974 2°54.659 189.3 11.8 193 9.1
2008-11-27 15:58:39 51°14.781 2°54.612 177.9 11.6 180 9.7
2008-11-27 15:59:40 51°14.591 2°54.693 151.9 11.8 155 10.2
2008-11-27 16:00:39 51°14.439 2°54.879 129.4 11.8 132 11
2008-11-27 16:01:40 51°14.317 2°55.137 123.8 11.7 126 10.7
2008-11-27 16:02:39 51°14.234 2°55.288 132.8 5.6 135 11.4
2008-11-27 16:03:44 51°14.172 2°55.368 150.7 3.8 151 -999
2008-11-27 16:04:43 51°14.121 2°55.408 153.2 3.3 156 -999
2008-11-27 16:05:43 51°14.076 2°55.443 151.4 2.5 153 -999
2008-11-27 16:06:43 51°14.047 2°55.468 147.4 1.6 148 -999
2008-11-27 16:07:43 51°14.03 2°55.49 149 1.2 142 -999
2008-11-27 16:08:43 51°14.016 2°55.507 155.9 1 144 -999
2008-11-27 16:09:43 51°13.991 2°55.527 156 3 155 -999
2008-11-27 16:10:43 51°13.907 2°55.584 155.6 5.7 158 -999
2008-11-27 16:11:43 51°13.825 2°55.642 153 5.2 156 -999
2008-11-27 16:12:43 51°13.749 2°55.71 135.7 5.2 144 -999
2008-11-27 16:13:44 51°13.695 2°55.813 120.2 4.5 124 -999
2008-11-27 16:14:43 51°13.66 2°55.903 117.9 3.9 120 -999
2008-11-27 16:15:43 51°13.636 2°55.992 108 3.3 105 -999
2008-11-27 16:16:43 51°13.625 2°56.041 121.5 1 125 -999